sensor_id;sensor_type;location;lat;lon;timestamp;pressure;altitude;pressure_sealevel;temperature;humidity
16793;BME280;8513;42.662;23.350;2023-04-19T00:00:13;94508.75;;;11.59;59.59
16793;BME280;8513;42.662;23.350;2023-04-19T00:02:38;94505.94;;;11.68;59.06
16793;BME280;8513;42.662;23.350;2023-04-19T00:05:06;94503.47;;;11.67;59.41
16793;BME280;8513;42.662;23.350;2023-04-19T00:07:32;94507.94;;;11.58;59.53
16793;BME280;8513;42.662;23.350;2023-04-19T00:09:57;94501.19;;;11.56;59.65
16793;BME280;8513;42.662;23.350;2023-04-19T00:12:23;94508.44;;;11.54;59.72
16793;BME280;8513;42.662;23.350;2023-04-19T00:14:48;94503.03;;;11.55;59.56
16793;BME280;8513;42.662;23.350;2023-04-19T00:17:13;94499.53;;;11.63;59.37
16793;BME280;8513;42.662;23.350;2023-04-19T00:19:39;94501.31;;;11.62;59.50
16793;BME280;8513;42.662;23.350;2023-04-19T00:22:05;94496.56;;;11.66;59.21
16793;BME280;8513;42.662;23.350;2023-04-19T00:24:30;94501.81;;;11.66;59.33
16793;BME280;8513;42.662;23.350;2023-04-19T00:26:56;94490.97;;;11.61;59.56
16793;BME280;8513;42.662;23.350;2023-04-19T00:29:23;94495.09;;;11.63;59.66
16793;BME280;8513;42.662;23.350;2023-04-19T00:31:49;94499.22;;;11.58;59.89
16793;BME280;8513;42.662;23.350;2023-04-19T00:34:14;94490.94;;;11.69;59.21
16793;BME280;8513;42.662;23.350;2023-04-19T00:36:40;94490.34;;;11.51;59.62
16793;BME280;8513;42.662;23.350;2023-04-19T00:39:05;94486.41;;;11.46;60.22
16793;BME280;8513;42.662;23.350;2023-04-19T00:41:31;94486.88;;;11.58;59.96
16793;BME280;8513;42.662;23.350;2023-04-19T00:43:56;94486.66;;;11.68;59.55
16793;BME280;8513;42.662;23.350;2023-04-19T00:46:21;94481.91;;;11.63;59.75
16793;BME280;8513;42.662;23.350;2023-04-19T00:48:48;94490.19;;;11.52;59.77
16793;BME280;8513;42.662;23.350;2023-04-19T00:51:14;94483.44;;;11.58;59.40
16793;BME280;8513;42.662;23.350;2023-04-19T00:53:42;94483.16;;;11.44;59.88
16793;BME280;8513;42.662;23.350;2023-04-19T00:56:08;94475.72;;;11.48;59.83
16793;BME280;8513;42.662;23.350;2023-04-19T00:58:37;94481.97;;;11.55;59.31
16793;BME280;8513;42.662;23.350;2023-04-19T01:01:03;94478.31;;;11.56;59.33
16793;BME280;8513;42.662;23.350;2023-04-19T01:03:30;94466.00;;;11.48;59.69
16793;BME280;8513;42.662;23.350;2023-04-19T01:05:55;94473.03;;;11.64;59.33
16793;BME280;8513;42.662;23.350;2023-04-19T01:08:22;94478.44;;;11.71;58.88
16793;BME280;8513;42.662;23.350;2023-04-19T01:10:47;94468.72;;;11.72;58.92
16793;BME280;8513;42.662;23.350;2023-04-19T01:13:13;94466.44;;;11.68;58.89
16793;BME280;8513;42.662;23.350;2023-04-19T01:15:38;94467.94;;;11.63;58.89
16793;BME280;8513;42.662;23.350;2023-04-19T01:18:04;94471.19;;;11.65;59.43
16793;BME280;8513;42.662;23.350;2023-04-19T01:20:29;94470.53;;;11.71;59.31
16793;BME280;8513;42.662;23.350;2023-04-19T01:22:54;94469.09;;;11.60;59.65
16793;BME280;8513;42.662;23.350;2023-04-19T01:25:20;94478.94;;;11.66;59.42
16793;BME280;8513;42.662;23.350;2023-04-19T01:27:45;94468.91;;;11.62;59.29
16793;BME280;8513;42.662;23.350;2023-04-19T01:30:11;94473.84;;;11.65;59.17
16793;BME280;8513;42.662;23.350;2023-04-19T01:32:37;94471.38;;;11.63;58.96
16793;BME280;8513;42.662;23.350;2023-04-19T01:35:02;94477.13;;;11.67;58.96
16793;BME280;8513;42.662;23.350;2023-04-19T01:37:28;94466.34;;;11.45;59.70
16793;BME280;8513;42.662;23.350;2023-04-19T01:39:53;94469.13;;;11.52;59.42
16793;BME280;8513;42.662;23.350;2023-04-19T01:42:19;94464.47;;;11.62;58.98
16793;BME280;8513;42.662;23.350;2023-04-19T01:44:45;94459.38;;;11.61;59.13
16793;BME280;8513;42.662;23.350;2023-04-19T01:47:10;94462.41;;;11.50;59.59
16793;BME280;8513;42.662;23.350;2023-04-19T01:49:36;94459.78;;;11.50;59.70
16793;BME280;8513;42.662;23.350;2023-04-19T01:52:01;94469.13;;;11.52;59.77
16793;BME280;8513;42.662;23.350;2023-04-19T01:54:26;94455.63;;;11.55;59.63
16793;BME280;8513;42.662;23.350;2023-04-19T01:56:52;94451.59;;;11.36;60.24
16793;BME280;8513;42.662;23.350;2023-04-19T01:59:17;94459.81;;;11.41;60.00
16793;BME280;8513;42.662;23.350;2023-04-19T02:01:43;94458.13;;;11.40;60.42
16793;BME280;8513;42.662;23.350;2023-04-19T02:04:08;94457.38;;;11.23;60.89
16793;BME280;8513;42.662;23.350;2023-04-19T02:06:34;94463.06;;;11.43;60.70
16793;BME280;8513;42.662;23.350;2023-04-19T02:08:59;94455.88;;;11.29;60.99
16793;BME280;8513;42.662;23.350;2023-04-19T02:11:24;94465.66;;;11.12;61.42
16793;BME280;8513;42.662;23.350;2023-04-19T02:13:50;94456.59;;;11.15;61.29
16793;BME280;8513;42.662;23.350;2023-04-19T02:16:15;94454.56;;;11.25;60.92
16793;BME280;8513;42.662;23.350;2023-04-19T02:18:41;94455.28;;;11.11;61.38
16793;BME280;8513;42.662;23.350;2023-04-19T02:21:07;94457.13;;;11.02;61.72
16793;BME280;8513;42.662;23.350;2023-04-19T02:23:33;94450.53;;;10.98;62.04
16793;BME280;8513;42.662;23.350;2023-04-19T02:26:00;94455.81;;;10.90;62.05
16793;BME280;8513;42.662;23.350;2023-04-19T02:28:31;94449.44;;;10.76;62.60
16793;BME280;8513;42.662;23.350;2023-04-19T02:30:57;94441.72;;;10.66;63.16
16793;BME280;8513;42.662;23.350;2023-04-19T02:33:23;94440.25;;;10.47;63.91
16793;BME280;8513;42.662;23.350;2023-04-19T02:35:49;94448.97;;;10.48;63.97
16793;BME280;8513;42.662;23.350;2023-04-19T02:38:15;94452.91;;;10.60;63.50
16793;BME280;8513;42.662;23.350;2023-04-19T02:40:40;94448.78;;;10.74;63.08
16793;BME280;8513;42.662;23.350;2023-04-19T02:43:06;94448.41;;;10.85;62.48
16793;BME280;8513;42.662;23.350;2023-04-19T02:45:31;94452.06;;;10.68;62.91
16793;BME280;8513;42.662;23.350;2023-04-19T02:47:56;94452.03;;;10.84;62.51
16793;BME280;8513;42.662;23.350;2023-04-19T02:50:24;94453.38;;;10.80;62.73
16793;BME280;8513;42.662;23.350;2023-04-19T02:52:50;94452.53;;;10.88;62.55
16793;BME280;8513;42.662;23.350;2023-04-19T02:55:15;94451.38;;;10.82;62.70
16793;BME280;8513;42.662;23.350;2023-04-19T02:57:41;94449.88;;;10.88;62.35
16793;BME280;8513;42.662;23.350;2023-04-19T03:00:06;94449.25;;;10.86;62.28
16793;BME280;8513;42.662;23.350;2023-04-19T03:02:33;94452.00;;;11.00;61.85
16793;BME280;8513;42.662;23.350;2023-04-19T03:04:58;94453.03;;;10.91;62.22
16793;BME280;8513;42.662;23.350;2023-04-19T03:07:24;94456.31;;;10.85;62.19
16793;BME280;8513;42.662;23.350;2023-04-19T03:09:50;94452.41;;;10.65;62.63
16793;BME280;8513;42.662;23.350;2023-04-19T03:12:15;94449.91;;;10.71;62.49
16793;BME280;8513;42.662;23.350;2023-04-19T03:14:41;94446.81;;;10.59;62.91
16793;BME280;8513;42.662;23.350;2023-04-19T03:17:06;94450.63;;;10.32;63.72
16793;BME280;8513;42.662;23.350;2023-04-19T03:19:31;94448.81;;;10.33;63.68
16793;BME280;8513;42.662;23.350;2023-04-19T03:21:57;94450.75;;;10.39;63.58
16793;BME280;8513;42.662;23.350;2023-04-19T03:24:26;94454.22;;;10.56;63.01
16793;BME280;8513;42.662;23.350;2023-04-19T03:26:53;94449.47;;;10.51;63.33
16793;BME280;8513;42.662;23.350;2023-04-19T03:29:19;94448.47;;;10.52;63.12
16793;BME280;8513;42.662;23.350;2023-04-19T03:31:44;94440.25;;;10.47;63.03
16793;BME280;8513;42.662;23.350;2023-04-19T03:34:10;94444.34;;;10.58;62.69
16793;BME280;8513;42.662;23.350;2023-04-19T03:36:35;94446.03;;;10.51;62.95
16793;BME280;8513;42.662;23.350;2023-04-19T03:39:02;94444.19;;;10.51;62.74
16793;BME280;8513;42.662;23.350;2023-04-19T03:41:28;94445.69;;;10.62;62.65
16793;BME280;8513;42.662;23.350;2023-04-19T03:43:53;94442.53;;;10.42;63.03
16793;BME280;8513;42.662;23.350;2023-04-19T03:46:18;94442.88;;;10.47;62.61
16793;BME280;8513;42.662;23.350;2023-04-19T03:48:44;94446.34;;;10.56;62.42
16793;BME280;8513;42.662;23.350;2023-04-19T03:51:10;94439.78;;;10.35;63.07
16793;BME280;8513;42.662;23.350;2023-04-19T03:53:35;94447.66;;;10.52;62.62
16793;BME280;8513;42.662;23.350;2023-04-19T03:56:01;94435.19;;;10.46;62.68
16793;BME280;8513;42.662;23.350;2023-04-19T03:58:26;94439.91;;;10.42;63.02
16793;BME280;8513;42.662;23.350;2023-04-19T04:00:52;94433.03;;;10.57;62.45
16793;BME280;8513;42.662;23.350;2023-04-19T04:03:18;94441.72;;;10.58;62.69
16793;BME280;8513;42.662;23.350;2023-04-19T04:05:43;94436.97;;;10.53;62.49
16793;BME280;8513;42.662;23.350;2023-04-19T04:08:09;94442.53;;;10.26;63.58
16793;BME280;8513;42.662;23.350;2023-04-19T04:10:34;94440.59;;;10.36;63.02
16793;BME280;8513;42.662;23.350;2023-04-19T04:13:00;94442.56;;;10.34;63.01
16793;BME280;8513;42.662;23.350;2023-04-19T04:15:25;94443.53;;;10.41;62.96
16793;BME280;8513;42.662;23.350;2023-04-19T04:17:50;94449.78;;;10.56;62.51
16793;BME280;8513;42.662;23.350;2023-04-19T04:20:16;94452.41;;;10.65;62.41
16793;BME280;8513;42.662;23.350;2023-04-19T04:22:42;94452.09;;;10.59;62.34
16793;BME280;8513;42.662;23.350;2023-04-19T04:25:08;94459.78;;;10.61;62.28
16793;BME280;8513;42.662;23.350;2023-04-19T04:27:34;94454.03;;;10.66;61.43
16793;BME280;8513;42.662;23.350;2023-04-19T04:30:00;94459.63;;;10.54;62.39
16793;BME280;8513;42.662;23.350;2023-04-19T04:32:26;94452.56;;;10.55;61.88
16793;BME280;8513;42.662;23.350;2023-04-19T04:34:51;94456.03;;;10.39;62.59
16793;BME280;8513;42.662;23.350;2023-04-19T04:37:17;94453.72;;;10.44;62.37
16793;BME280;8513;42.662;23.350;2023-04-19T04:39:42;94460.97;;;10.58;62.27
16793;BME280;8513;42.662;23.350;2023-04-19T04:42:08;94460.63;;;10.70;61.82
16793;BME280;8513;42.662;23.350;2023-04-19T04:44:37;94465.91;;;10.53;62.30
16793;BME280;8513;42.662;23.350;2023-04-19T04:47:06;94467.19;;;10.49;62.67
16793;BME280;8513;42.662;23.350;2023-04-19T04:49:31;94466.19;;;10.42;62.81
16793;BME280;8513;42.662;23.350;2023-04-19T04:51:57;94470.50;;;10.51;62.57
16793;BME280;8513;42.662;23.350;2023-04-19T04:54:23;94470.50;;;10.51;62.38
16793;BME280;8513;42.662;23.350;2023-04-19T04:56:48;94463.25;;;10.62;62.28
16793;BME280;8513;42.662;23.350;2023-04-19T04:59:13;94465.72;;;10.55;62.32
16793;BME280;8513;42.662;23.350;2023-04-19T05:01:39;94470.81;;;10.48;62.44
16793;BME280;8513;42.662;23.350;2023-04-19T05:04:05;94466.03;;;10.52;62.41
16793;BME280;8513;42.662;23.350;2023-04-19T05:06:30;94466.63;;;10.13;63.67
16793;BME280;8513;42.662;23.350;2023-04-19T05:08:56;94473.13;;;10.35;62.81
16793;BME280;8513;42.662;23.350;2023-04-19T05:11:21;94475.41;;;10.38;62.94
16793;BME280;8513;42.662;23.350;2023-04-19T05:13:47;94472.78;;;10.46;62.68
16793;BME280;8513;42.662;23.350;2023-04-19T05:16:12;94478.03;;;10.38;63.07
16793;BME280;8513;42.662;23.350;2023-04-19T05:18:38;94479.34;;;10.34;62.96
16793;BME280;8513;42.662;23.350;2023-04-19T05:21:03;94482.97;;;10.49;62.91
16793;BME280;8513;42.662;23.350;2023-04-19T05:23:29;94474.94;;;10.51;62.84
16793;BME280;8513;42.662;23.350;2023-04-19T05:25:54;94469.00;;;10.41;63.38
16793;BME280;8513;42.662;23.350;2023-04-19T05:28:20;94473.44;;;10.56;62.78
16793;BME280;8513;42.662;23.350;2023-04-19T05:30:45;94474.09;;;10.67;62.45
16793;BME280;8513;42.662;23.350;2023-04-19T05:33:10;94477.88;;;10.72;62.17
16793;BME280;8513;42.662;23.350;2023-04-19T05:35:36;94476.06;;;10.56;62.84
16793;BME280;8513;42.662;23.350;2023-04-19T05:38:02;94479.03;;;10.78;62.27
16793;BME280;8513;42.662;23.350;2023-04-19T05:40:27;94478.22;;;10.77;61.94
16793;BME280;8513;42.662;23.350;2023-04-19T05:42:53;94481.78;;;10.85;61.72
16793;BME280;8513;42.662;23.350;2023-04-19T05:45:20;94482.78;;;10.84;61.73
16793;BME280;8513;42.662;23.350;2023-04-19T05:47:46;94476.00;;;11.06;60.93
16793;BME280;8513;42.662;23.350;2023-04-19T05:50:11;94476.69;;;10.91;61.37
16793;BME280;8513;42.662;23.350;2023-04-19T05:52:39;94477.19;;;10.95;61.47
16793;BME280;8513;42.662;23.350;2023-04-19T05:55:04;94480.31;;;10.90;61.84
16793;BME280;8513;42.662;23.350;2023-04-19T05:57:30;94482.78;;;10.92;61.52
16793;BME280;8513;42.662;23.350;2023-04-19T05:59:56;94486.22;;;11.00;61.52
16793;BME280;8513;42.662;23.350;2023-04-19T06:02:21;94485.44;;;10.84;62.04
16793;BME280;8513;42.662;23.350;2023-04-19T06:04:47;94495.09;;;10.99;61.60
16793;BME280;8513;42.662;23.350;2023-04-19T06:07:13;94488.81;;;11.09;60.59
16793;BME280;8513;42.662;23.350;2023-04-19T06:09:38;94485.41;;;11.00;61.14
16793;BME280;8513;42.662;23.350;2023-04-19T06:12:04;94478.16;;;11.02;60.82
16793;BME280;8513;42.662;23.350;2023-04-19T06:14:29;94480.41;;;11.21;60.82
16793;BME280;8513;42.662;23.350;2023-04-19T06:16:55;94483.53;;;11.17;60.91
16793;BME280;8513;42.662;23.350;2023-04-19T06:19:21;94489.16;;;11.14;61.49
16793;BME280;8513;42.662;23.350;2023-04-19T06:21:46;94486.03;;;11.10;61.50
16793;BME280;8513;42.662;23.350;2023-04-19T06:24:12;94489.63;;;11.25;61.48
16793;BME280;8513;42.662;23.350;2023-04-19T06:26:37;94488.94;;;11.32;61.27
16793;BME280;8513;42.662;23.350;2023-04-19T06:29:03;94485.94;;;11.43;60.71
16793;BME280;8513;42.662;23.350;2023-04-19T06:31:28;94484.47;;;11.40;60.96
16793;BME280;8513;42.662;23.350;2023-04-19T06:33:54;94476.50;;;11.57;59.97
16793;BME280;8513;42.662;23.350;2023-04-19T06:36:19;94487.66;;;11.67;59.53
16793;BME280;8513;42.662;23.350;2023-04-19T06:38:45;94485.03;;;11.67;59.69
16793;BME280;8513;42.662;23.350;2023-04-19T06:41:11;94504.34;;;11.51;60.19
16793;BME280;8513;42.662;23.350;2023-04-19T06:43:36;94491.84;;;11.53;60.25
16793;BME280;8513;42.662;23.350;2023-04-19T06:46:03;94494.53;;;11.76;59.27
16793;BME280;8513;42.662;23.350;2023-04-19T06:48:29;94495.66;;;11.42;60.25
16793;BME280;8513;42.662;23.350;2023-04-19T06:50:55;94494.91;;;11.65;59.79
16793;BME280;8513;42.662;23.350;2023-04-19T06:53:21;94498.13;;;11.83;59.34
16793;BME280;8513;42.662;23.350;2023-04-19T06:55:46;94499.06;;;11.99;58.15
16793;BME280;8513;42.662;23.350;2023-04-19T06:58:12;94496.03;;;12.10;58.15
16793;BME280;8513;42.662;23.350;2023-04-19T07:00:37;94492.47;;;12.26;58.07
16793;BME280;8513;42.662;23.350;2023-04-19T07:03:03;94499.22;;;12.28;58.36
16793;BME280;8513;42.662;23.350;2023-04-19T07:05:29;94494.25;;;12.33;57.54
16793;BME280;8513;42.662;23.350;2023-04-19T07:07:55;94502.41;;;12.70;56.69
16793;BME280;8513;42.662;23.350;2023-04-19T07:10:21;94497.72;;;12.57;56.70
16793;BME280;8513;42.662;23.350;2023-04-19T07:12:46;94500.28;;;12.65;56.19
16793;BME280;8513;42.662;23.350;2023-04-19T07:15:12;94506.81;;;12.69;56.01
16793;BME280;8513;42.662;23.350;2023-04-19T07:17:37;94503.81;;;12.95;55.38
16793;BME280;8513;42.662;23.350;2023-04-19T07:20:03;94508.41;;;12.78;56.20
16793;BME280;8513;42.662;23.350;2023-04-19T07:22:31;94502.28;;;13.01;55.23
16793;BME280;8513;42.662;23.350;2023-04-19T07:24:56;94502.25;;;12.86;55.40
16793;BME280;8513;42.662;23.350;2023-04-19T07:27:22;94510.19;;;12.63;56.11
16793;BME280;8513;42.662;23.350;2023-04-19T07:29:48;94499.47;;;12.65;55.37
16793;BME280;8513;42.662;23.350;2023-04-19T07:32:13;94514.50;;;12.56;56.32
16793;BME280;8513;42.662;23.350;2023-04-19T07:34:39;94515.22;;;12.73;55.70
16793;BME280;8513;42.662;23.350;2023-04-19T07:37:06;94505.59;;;12.80;55.29
16793;BME280;8513;42.662;23.350;2023-04-19T07:39:31;94504.19;;;12.69;55.74
16793;BME280;8513;42.662;23.350;2023-04-19T07:41:57;94510.53;;;12.83;55.14
16793;BME280;8513;42.662;23.350;2023-04-19T07:44:23;94501.16;;;12.57;55.81
16793;BME280;8513;42.662;23.350;2023-04-19T07:46:48;94511.22;;;12.77;55.18
16793;BME280;8513;42.662;23.350;2023-04-19T07:49:14;94509.72;;;12.60;55.35
16793;BME280;8513;42.662;23.350;2023-04-19T07:51:39;94505.97;;;12.54;56.13
16793;BME280;8513;42.662;23.350;2023-04-19T07:54:05;94504.09;;;12.63;55.74
16793;BME280;8513;42.662;23.350;2023-04-19T07:56:31;94501.38;;;12.94;54.94
16793;BME280;8513;42.662;23.350;2023-04-19T07:58:58;94512.44;;;12.89;55.27
16793;BME280;8513;42.662;23.350;2023-04-19T08:01:24;94511.72;;;12.80;55.42
16793;BME280;8513;42.662;23.350;2023-04-19T08:03:49;94511.28;;;12.69;55.75
16793;BME280;8513;42.662;23.350;2023-04-19T08:06:15;94514.75;;;12.69;55.57
16793;BME280;8513;42.662;23.350;2023-04-19T08:08:42;94508.78;;;12.75;55.53
16793;BME280;8513;42.662;23.350;2023-04-19T08:11:07;94505.25;;;12.83;55.29
16793;BME280;8513;42.662;23.350;2023-04-19T08:13:33;94501.97;;;12.96;55.22
16793;BME280;8513;42.662;23.350;2023-04-19T08:15:58;94506.28;;;12.97;54.97
16793;BME280;8513;42.662;23.350;2023-04-19T08:18:24;94507.59;;;13.16;54.31
16793;BME280;8513;42.662;23.350;2023-04-19T08:20:49;94513.97;;;13.21;54.54
16793;BME280;8513;42.662;23.350;2023-04-19T08:23:15;94511.56;;;13.12;54.17
16793;BME280;8513;42.662;23.350;2023-04-19T08:25:41;94506.84;;;13.22;53.91
16793;BME280;8513;42.662;23.350;2023-04-19T08:28:06;94504.66;;;13.25;54.05
16793;BME280;8513;42.662;23.350;2023-04-19T08:30:32;94507.00;;;13.29;53.75
16793;BME280;8513;42.662;23.350;2023-04-19T08:32:57;94491.72;;;13.01;54.73
16793;BME280;8513;42.662;23.350;2023-04-19T08:35:23;94499.63;;;13.39;53.87
16793;BME280;8513;42.662;23.350;2023-04-19T08:37:49;94493.25;;;13.48;53.45
16793;BME280;8513;42.662;23.350;2023-04-19T08:40:15;94496.63;;;13.57;53.37
16793;BME280;8513;42.662;23.350;2023-04-19T08:42:41;94504.25;;;13.52;53.54
16793;BME280;8513;42.662;23.350;2023-04-19T08:45:07;94501.53;;;13.45;53.81
16793;BME280;8513;42.662;23.350;2023-04-19T08:47:36;94494.78;;;13.72;52.57
16793;BME280;8513;42.662;23.350;2023-04-19T08:50:03;94492.50;;;13.84;52.41
16793;BME280;8513;42.662;23.350;2023-04-19T08:52:32;94487.16;;;13.48;53.47
16793;BME280;8513;42.662;23.350;2023-04-19T08:55:03;94491.59;;;13.77;53.02
16793;BME280;8513;42.662;23.350;2023-04-19T08:57:30;94481.34;;;14.03;52.15
16793;BME280;8513;42.662;23.350;2023-04-19T08:59:57;94482.84;;;14.27;51.34
16793;BME280;8513;42.662;23.350;2023-04-19T09:02:23;94491.63;;;14.34;51.04
16793;BME280;8513;42.662;23.350;2023-04-19T09:04:48;94477.09;;;14.24;50.22
16793;BME280;8513;42.662;23.350;2023-04-19T09:07:25;94491.56;;;14.06;50.74
16793;BME280;8513;42.662;23.350;2023-04-19T09:10:11;94476.78;;;13.97;51.21
16793;BME280;8513;42.662;23.350;2023-04-19T09:12:37;94485.50;;;14.12;50.16
16793;BME280;8513;42.662;23.350;2023-04-19T09:15:05;94489.31;;;13.88;50.68
16793;BME280;8513;42.662;23.350;2023-04-19T09:17:33;94480.19;;;13.91;50.83
16793;BME280;8513;42.662;23.350;2023-04-19T09:19:59;94480.25;;;13.98;50.60
16793;BME280;8513;42.662;23.350;2023-04-19T09:22:24;94477.75;;;14.11;49.66
16793;BME280;8513;42.662;23.350;2023-04-19T09:24:50;94474.25;;;14.04;50.03
16793;BME280;8513;42.662;23.350;2023-04-19T09:27:30;94460.50;;;13.94;49.85
16793;BME280;8513;42.662;23.350;2023-04-19T09:29:58;94472.25;;;13.91;50.47
16793;BME280;8513;42.662;23.350;2023-04-19T09:32:25;94460.28;;;13.95;50.76
16793;BME280;8513;42.662;23.350;2023-04-19T09:34:58;94471.81;;;13.87;50.89
16793;BME280;8513;42.662;23.350;2023-04-19T09:37:25;94469.00;;;14.10;49.93
16793;BME280;8513;42.662;23.350;2023-04-19T09:39:51;94471.16;;;14.43;49.10
16793;BME280;8513;42.662;23.350;2023-04-19T09:42:17;94464.63;;;14.39;49.20
16793;BME280;8513;42.662;23.350;2023-04-19T09:44:57;94462.81;;;14.40;48.93
16793;BME280;8513;42.662;23.350;2023-04-19T09:47:24;94470.00;;;14.67;48.38
16793;BME280;8513;42.662;23.350;2023-04-19T09:50:07;94463.88;;;14.45;49.20
16793;BME280;8513;42.662;23.350;2023-04-19T09:52:33;94449.03;;;14.66;48.37
16793;BME280;8513;42.662;23.350;2023-04-19T09:55:00;94450.09;;;14.28;48.38
16793;BME280;8513;42.662;23.350;2023-04-19T09:57:26;94443.63;;;14.52;47.98
16793;BME280;8513;42.662;23.350;2023-04-19T09:59:51;94441.22;;;14.15;49.33
16793;BME280;8513;42.662;23.350;2023-04-19T10:02:18;94439.19;;;14.17;49.61
16793;BME280;8513;42.662;23.350;2023-04-19T10:04:44;94433.41;;;14.28;48.82
16793;BME280;8513;42.662;23.350;2023-04-19T10:07:10;94423.22;;;14.25;48.75
16793;BME280;8513;42.662;23.350;2023-04-19T10:09:37;94436.19;;;14.63;47.86
16793;BME280;8513;42.662;23.350;2023-04-19T10:12:04;94438.44;;;14.94;47.14
16793;BME280;8513;42.662;23.350;2023-04-19T10:14:34;94425.34;;;14.79;47.73
16793;BME280;8513;42.662;23.350;2023-04-19T10:17:00;94425.97;;;14.81;47.26
16793;BME280;8513;42.662;23.350;2023-04-19T10:19:27;94427.59;;;14.82;47.19
16793;BME280;8513;42.662;23.350;2023-04-19T10:21:53;94428.47;;;14.89;47.12
16793;BME280;8513;42.662;23.350;2023-04-19T10:24:20;94435.84;;;14.72;46.99
16793;BME280;8513;42.662;23.350;2023-04-19T10:27:07;94426.28;;;14.71;48.14
16793;BME280;8513;42.662;23.350;2023-04-19T10:32:20;94420.16;;;14.99;48.95
16793;BME280;8513;42.662;23.350;2023-04-19T10:34:46;94420.47;;;15.11;47.42
16793;BME280;8513;42.662;23.350;2023-04-19T10:37:15;94428.59;;;15.09;46.61
16793;BME280;8513;42.662;23.350;2023-04-19T10:39:42;94428.59;;;15.09;47.58
16793;BME280;8513;42.662;23.350;2023-04-19T10:42:08;94419.41;;;15.40;46.31
16793;BME280;8513;42.662;23.350;2023-04-19T10:44:33;94422.16;;;15.25;46.14
16793;BME280;8513;42.662;23.350;2023-04-19T10:46:59;94414.44;;;15.24;46.17
16793;BME280;8513;42.662;23.350;2023-04-19T10:49:26;94408.69;;;15.20;45.81
16793;BME280;8513;42.662;23.350;2023-04-19T10:51:52;94408.19;;;15.03;46.05
16793;BME280;8513;42.662;23.350;2023-04-19T10:54:35;94400.59;;;15.28;46.43
16793;BME280;8513;42.662;23.350;2023-04-19T10:57:03;94394.38;;;15.49;44.96
16793;BME280;8513;42.662;23.350;2023-04-19T10:59:33;94401.66;;;15.75;43.28
16793;BME280;8513;42.662;23.350;2023-04-19T11:02:01;94404.03;;;15.29;44.72
16793;BME280;8513;42.662;23.350;2023-04-19T11:07:04;94398.53;;;15.65;44.59
16793;BME280;8513;42.662;23.350;2023-04-19T11:09:35;94393.00;;;15.60;45.43
16793;BME280;8513;42.662;23.350;2023-04-19T11:12:05;94392.97;;;16.01;43.49
16793;BME280;8513;42.662;23.350;2023-04-19T11:14:36;94384.34;;;15.86;44.25
16793;BME280;8513;42.662;23.350;2023-04-19T11:17:20;94383.19;;;16.02;44.27
16793;BME280;8513;42.662;23.350;2023-04-19T11:19:53;94405.22;;;16.22;42.53
16793;BME280;8513;42.662;23.350;2023-04-19T11:25:05;94389.97;;;16.38;42.92
16793;BME280;8513;42.662;23.350;2023-04-19T11:27:31;94387.31;;;16.38;41.87
16793;BME280;8513;42.662;23.350;2023-04-19T11:30:05;94388.56;;;16.68;41.55
16793;BME280;8513;42.662;23.350;2023-04-19T11:32:32;94380.38;;;16.76;40.47
16793;BME280;8513;42.662;23.350;2023-04-19T11:35:03;94383.66;;;16.65;41.12
16793;BME280;8513;42.662;23.350;2023-04-19T11:37:31;94382.66;;;16.80;40.89
16793;BME280;8513;42.662;23.350;2023-04-19T11:39:57;94384.09;;;16.82;40.24
16793;BME280;8513;42.662;23.350;2023-04-19T11:42:23;94396.88;;;17.18;39.01
16793;BME280;8513;42.662;23.350;2023-04-19T11:44:49;94387.13;;;16.92;40.07
16793;BME280;8513;42.662;23.350;2023-04-19T11:47:16;94385.88;;;17.02;39.32
16793;BME280;8513;42.662;23.350;2023-04-19T11:49:41;94378.31;;;17.05;38.71
16793;BME280;8513;42.662;23.350;2023-04-19T11:52:07;94370.31;;;17.18;38.58
16793;BME280;8513;42.662;23.350;2023-04-19T11:54:32;94379.50;;;17.16;39.02
16793;BME280;8513;42.662;23.350;2023-04-19T11:57:03;94361.53;;;17.25;38.36
16793;BME280;8513;42.662;23.350;2023-04-19T11:59:30;94370.66;;;17.49;39.06
16793;BME280;8513;42.662;23.350;2023-04-19T12:02:10;94373.41;;;17.74;37.38
16793;BME280;8513;42.662;23.350;2023-04-19T12:04:36;94358.91;;;17.70;36.84
16793;BME280;8513;42.662;23.350;2023-04-19T12:07:03;94357.00;;;17.90;36.41
16793;BME280;8513;42.662;23.350;2023-04-19T12:09:32;94354.78;;;17.74;37.22
16793;BME280;8513;42.662;23.350;2023-04-19T12:11:58;94365.28;;;17.62;37.26
16793;BME280;8513;42.662;23.350;2023-04-19T12:14:23;94357.50;;;17.60;36.96
16793;BME280;8513;42.662;23.350;2023-04-19T12:17:04;94348.25;;;17.83;36.86
16793;BME280;8513;42.662;23.350;2023-04-19T12:19:34;94350.06;;;18.21;35.45
16793;BME280;8513;42.662;23.350;2023-04-19T12:22:11;94348.94;;;18.35;36.48
16793;BME280;8513;42.662;23.350;2023-04-19T12:24:37;94354.22;;;18.67;34.95
16793;BME280;8513;42.662;23.350;2023-04-19T12:27:03;94347.09;;;18.61;34.11
16793;BME280;8513;42.662;23.350;2023-04-19T12:29:30;94346.94;;;18.81;33.49
16793;BME280;8513;42.662;23.350;2023-04-19T12:31:55;94342.16;;;18.89;34.49
16793;BME280;8513;42.662;23.350;2023-04-19T12:34:21;94345.75;;;19.38;34.46
16793;BME280;8513;42.662;23.350;2023-04-19T12:36:46;94353.03;;;19.68;33.73
16793;BME280;8513;42.662;23.350;2023-04-19T12:39:11;94339.28;;;19.83;33.35
16793;BME280;8513;42.662;23.350;2023-04-19T12:41:37;94338.84;;;20.16;33.19
16793;BME280;8513;42.662;23.350;2023-04-19T12:44:02;94339.72;;;20.40;32.30
16793;BME280;8513;42.662;23.350;2023-04-19T12:46:28;94340.63;;;20.34;33.53
16793;BME280;8513;42.662;23.350;2023-04-19T12:48:53;94347.22;;;19.53;34.37
16793;BME280;8513;42.662;23.350;2023-04-19T12:51:19;94348.88;;;19.17;34.89
16793;BME280;8513;42.662;23.350;2023-04-19T12:53:48;94339.88;;;19.30;35.22
16793;BME280;8513;42.662;23.350;2023-04-19T12:56:14;94342.84;;;19.40;34.50
16793;BME280;8513;42.662;23.350;2023-04-19T12:58:41;94330.78;;;19.37;34.10
16793;BME280;8513;42.662;23.350;2023-04-19T13:01:06;94347.22;;;19.34;35.10
16793;BME280;8513;42.662;23.350;2023-04-19T13:03:32;94337.56;;;19.89;33.92